Time;durP1;ratioP1;P1;durP2;ratioP2;P2;SDS_P1;SDS_P2;PMS_P1;PMS_P2;Temp;Humidity;BMP_temperature;BMP_pressure;BME280_temperature;BME280_humidity;BME280_pressure;Samples;Min_cycle;Max_cycle;Signal;HPM_P1;HPM_P2
2021/01/30 00:00:40;;;;;;;18.00;8.03;;;;;;;-2.12;81.59;90975.97;1848172;77;21091;-74
2021/01/30 00:03:10;;;;;;;22.67;10.93;;;;;;;-2.12;81.95;90979.96;1848273;77;21103;-73
2021/01/30 00:05:37;;;;;;;22.20;10.80;;;;;;;-2.13;81.75;90971.78;1899878;75;21077;-74
2021/01/30 00:08:07;;;;;;;20.43;9.67;;;;;;;-2.14;82.37;90973.48;1864492;75;22204;-74
2021/01/30 00:10:35;;;;;;;19.47;10.40;;;;;;;-2.16;82.34;90975.77;1871912;75;21117;-74
2021/01/30 00:13:04;;;;;;;24.33;11.43;;;;;;;-2.21;82.36;90976.90;1908589;75;21062;-74
2021/01/30 00:15:33;;;;;;;12.67;6.50;;;;;;;-2.21;82.38;90964.92;1908926;75;21145;-74
2021/01/30 00:18:01;;;;;;;15.17;8.67;;;;;;;-2.22;83.26;90959.38;1836204;78;21165;-74
2021/01/30 00:20:31;;;;;;;24.53;11.70;;;;;;;-2.20;82.85;90961.11;1893197;75;21199;-74
2021/01/30 00:23:00;;;;;;;23.83;12.33;;;;;;;-2.22;82.52;90956.17;1909128;75;21148;-74
2021/01/30 00:25:31;;;;;;;20.77;10.07;;;;;;;-2.25;82.41;90945.51;1875553;74;21184;-73
2021/01/30 00:27:59;;;;;;;13.13;6.70;;;;;;;-2.27;82.48;90949.10;1828252;76;21234;-73
2021/01/30 00:30:30;;;;;;;13.00;6.90;;;;;;;-2.28;83.19;90964.31;1883915;76;21213;-73
2021/01/30 00:33:00;;;;;;;18.70;9.10;;;;;;;-2.26;83.40;90963.38;1848738;76;22224;-74
2021/01/30 00:35:29;;;;;;;21.43;10.33;;;;;;;-2.22;83.25;90956.72;1847898;76;21131;-74
2021/01/30 00:37:57;;;;;;;11.80;6.40;;;;;;;-2.22;82.89;90952.18;1848748;77;21139;-73
2021/01/30 00:40:24;;;;;;;17.10;9.37;;;;;;;-2.20;83.02;90947.80;1847852;77;21147;-74
2021/01/30 00:42:53;;;;;;;50.43;21.60;;;;;;;-2.13;83.21;90947.06;1846961;77;21143;-73
2021/01/30 00:45:23;;;;;;;37.53;18.33;;;;;;;-2.09;82.85;90955.83;1847788;77;21369;-74
2021/01/30 00:47:51;;;;;;;21.10;12.23;;;;;;;-2.10;82.67;90952.97;1904680;75;21636;-73
2021/01/30 00:50:20;;;;;;;23.80;12.13;;;;;;;-2.07;82.55;90952.98;1900568;75;21493;-73
2021/01/30 00:52:48;;;;;;;25.90;14.63;;;;;;;-2.09;82.64;90949.17;1899648;75;21102;-73
2021/01/30 00:55:19;;;;;;;15.23;8.20;;;;;;;-2.07;82.65;90946.87;1886902;75;21176;-73
2021/01/30 00:57:47;;;;;;;24.97;14.77;;;;;;;-2.07;82.93;90942.88;1900132;75;21318;-74
2021/01/30 01:00:22;;;;;;;29.53;16.53;;;;;;;-2.03;82.91;90939.66;1900072;75;21161;-73
2021/01/30 01:02:50;;;;;;;;;;;;;;;-1.98;82.63;90939.30;1902824;74;21125;-73
2021/01/30 01:05:19;;;;;;;22.95;13.03;;;;;;;-1.99;82.31;90937.22;1867504;74;20305;-73
2021/01/30 01:07:47;;;;;;;15.97;9.13;;;;;;;-2.08;82.36;90928.81;1842165;76;21203;-74
2021/01/30 01:10:17;;;;;;;5.90;3.90;;;;;;;-2.13;82.80;90929.19;1856221;75;21798;-73
2021/01/30 01:12:45;;;;;;;6.80;4.27;;;;;;;-2.13;82.95;90925.77;1912658;75;21140;-73
2021/01/30 01:15:13;;;;;;;19.27;10.07;;;;;;;-2.11;83.16;90916.81;1843597;75;21231;-75
2021/01/30 01:17:40;;;;;;;19.83;10.90;;;;;;;-2.07;83.02;90915.70;1835020;77;21500;-73
2021/01/30 01:20:12;;;;;;;16.10;8.73;;;;;;;-2.08;82.96;90910.74;1869469;75;21102;-74
2021/01/30 01:22:39;;;;;;;25.40;12.30;;;;;;;-2.06;82.87;90919.12;1884966;75;22192;-73
2021/01/30 01:25:08;;;;;;;33.20;14.80;;;;;;;-2.07;82.63;90913.05;1902557;75;21125;-73
2021/01/30 01:27:36;;;;;;;30.40;14.23;;;;;;;-2.08;82.42;90907.50;1851060;77;21151;-74
2021/01/30 01:30:09;;;;;;;82.33;32.70;;;;;;;-2.10;82.23;90902.38;1899247;75;21255;-72
2021/01/30 01:32:37;;;;;;;21.17;11.47;;;;;;;-2.12;82.22;90901.98;1900245;75;21133;-73
2021/01/30 01:35:07;;;;;;;12.60;6.47;;;;;;;-2.18;82.35;90893.62;1868721;76;22286;-72
2021/01/30 01:37:34;;;;;;;10.07;5.67;;;;;;;-2.21;82.70;90891.70;1857103;76;21109;-73
2021/01/30 01:40:04;;;;;;;11.90;6.53;;;;;;;-2.23;83.11;90892.06;1883667;76;21131;-73
2021/01/30 01:42:31;;;;;;;10.17;6.10;;;;;;;-2.22;82.78;90886.17;1848695;77;21079;-73
2021/01/30 01:45:00;;;;;;;15.10;8.20;;;;;;;-2.28;82.72;90881.80;1878073;75;21082;-73
2021/01/30 01:47:33;;;;;;;12.53;7.13;;;;;;;-2.29;82.67;90880.84;1862989;76;21228;-74
2021/01/30 01:50:05;;;;;;;12.10;6.67;;;;;;;-2.39;82.60;90869.02;1852236;76;21150;-73
2021/01/30 01:52:38;;;;;;;23.53;12.70;;;;;;;-2.46;82.84;90872.42;1877111;76;21131;-75
2021/01/30 01:55:16;;;;;;;15.73;8.37;;;;;;;-2.51;83.12;90867.48;1848019;76;21454;-75
2021/01/30 01:57:53;;;;;;;17.60;9.43;;;;;;;-2.50;83.50;90862.91;1884546;76;21694;-72
2021/01/30 02:00:21;;;;;;;13.10;8.33;;;;;;;-2.51;83.66;90869.37;1883936;74;21723;-73
2021/01/30 02:02:49;;;;;;;15.93;8.50;;;;;;;-2.49;84.05;90877.73;1858962;76;21123;-72
2021/01/30 02:05:27;;;;;;;15.10;7.63;;;;;;;-2.48;84.00;90878.70;1866224;76;21130;-72
2021/01/30 02:07:58;;;;;;;16.67;9.43;;;;;;;-2.47;83.97;90863.50;1873615;76;21586;-73
2021/01/30 02:10:42;;;;;;;22.20;12.00;;;;;;;-2.43;84.47;90862.17;1794084;75;21669;-73
2021/01/30 02:13:12;;;;;;;20.80;11.90;;;;;;;-2.38;84.18;90861.80;1898720;75;21575;-73
2021/01/30 02:15:39;;;;;;;20.70;12.10;;;;;;;-2.36;83.90;90854.97;1829960;78;21149;-73
2021/01/30 02:18:18;;;;;;;34.63;16.70;;;;;;;-2.35;83.67;90856.48;1855984;75;21169;-74
2021/01/30 02:21:31;;;;;;;18.53;9.87;;;;;;;-2.37;83.62;90865.98;1875213;75;21158;-73
2021/01/30 02:24:34;;;;;;;19.07;9.73;;;;;;;-2.37;83.81;90858.78;1858508;76;21151;-74
2021/01/30 02:27:31;;;;;;;18.00;10.40;;;;;;;-2.34;83.98;90867.31;1874645;76;21854;-73
2021/01/30 02:30:28;;;;;;;18.97;10.43;;;;;;;-2.32;84.06;90861.63;1859049;76;21618;-73
2021/01/30 02:33:33;;;;;;;7.63;4.80;;;;;;;-2.29;84.13;90868.88;1871902;76;21201;-75
2021/01/30 02:36:27;;;;;;;11.18;6.87;;;;;;;-2.28;84.75;90861.83;1857705;76;21150;-73
2021/01/30 02:39:20;;;;;;;17.90;9.00;;;;;;;-2.21;84.95;90855.77;1872155;76;21153;-73
2021/01/30 02:42:02;;;;;;;11.83;7.10;;;;;;;-2.16;85.21;90865.27;1862687;76;22555;-73
2021/01/30 02:44:32;;;;;;;12.00;5.83;;;;;;;-2.17;84.91;90873.83;1856928;75;21141;-73
2021/01/30 02:47:00;;;;;;;6.03;4.23;;;;;;;-2.23;84.90;90865.44;1874766;76;21640;-74
2021/01/30 02:49:33;;;;;;;9.07;5.57;;;;;;;-2.28;84.96;90866.39;1849467;76;21128;-73
2021/01/30 02:52:09;;;;;;;23.83;12.57;;;;;;;-2.29;85.07;90870.20;1858161;76;21027;-74
2021/01/30 02:54:37;;;;;;;24.90;13.70;;;;;;;-2.28;85.18;90869.05;1850286;75;21437;-74
2021/01/30 02:57:11;;;;;;;21.03;11.70;;;;;;;-2.29;85.32;90866.97;1872287;76;21181;-74
2021/01/30 02:59:48;;;;;;;20.23;11.00;;;;;;;-2.24;85.59;90864.50;1866887;76;21814;-74
2021/01/30 03:02:19;;;;;;;23.93;13.33;;;;;;;-2.22;85.74;90868.31;1859540;76;21331;-74
2021/01/30 03:04:46;;;;;;;19.53;10.63;;;;;;;-2.18;85.80;90860.88;1884450;74;21094;-74
2021/01/30 03:07:29;;;;;;;10.13;6.03;;;;;;;-2.13;86.46;90873.27;1884407;76;21179;-75
2021/01/30 03:10:18;;;;;;;22.30;10.80;;;;;;;-2.07;86.91;90866.98;1877965;76;21054;-73
2021/01/30 03:12:51;;;;;;;20.70;11.77;;;;;;;-1.87;87.58;90878.06;1846646;76;21155;-74
2021/01/30 03:15:43;;;;;;;19.20;10.80;;;;;;;-1.79;86.92;90875.59;1874616;76;21141;-74
2021/01/30 03:18:11;;;;;;;18.93;10.23;;;;;;;-1.77;86.66;90865.30;1859898;76;21465;-74
2021/01/30 03:20:41;;;;;;;17.07;10.33;;;;;;;-1.73;86.70;90860.73;1864477;76;21349;-74
2021/01/30 03:23:11;;;;;;;17.30;9.93;;;;;;;-1.69;86.76;90860.19;1886461;76;21629;-74
2021/01/30 03:25:39;;;;;;;13.43;8.47;;;;;;;-1.64;86.67;90864.38;1883595;76;21140;-76
2021/01/30 03:28:06;;;;;;;13.20;7.37;;;;;;;-1.60;86.83;90851.23;1822443;77;21625;-75
2021/01/30 03:30:34;;;;;;;5.33;3.20;;;;;;;-1.52;86.95;90841.33;1877038;76;21138;-75
2021/01/30 03:33:02;;;;;;;2.20;1.80;;;;;;;-1.34;88.29;90846.07;1884887;76;21179;-74
2021/01/30 03:35:30;;;;;;;5.97;3.83;;;;;;;-1.14;87.65;90841.07;1871615;76;21154;-74
2021/01/30 03:37:58;;;;;;;9.50;5.30;;;;;;;-0.90;87.30;90851.50;1827348;75;21171;-76
2021/01/30 03:40:25;;;;;;;7.20;3.37;;;;;;;-0.81;86.61;90839.84;1884518;76;21208;-74
2021/01/30 03:42:53;;;;;;;3.55;2.67;;;;;;;-0.75;86.64;90854.89;1851067;76;21128;-75
2021/01/30 03:45:25;;;;;;;36.77;19.83;;;;;;;-0.70;86.08;90842.47;1872241;74;21375;-80
2021/01/30 03:47:52;;;;;;;6.05;3.77;;;;;;;-0.54;86.25;90834.02;1884567;74;21556;-76
2021/01/30 03:50:20;;;;;;;3.65;2.80;;;;;;;-0.41;85.89;90841.03;1874609;76;21441;-76
2021/01/30 03:52:48;;;;;;;16.62;9.65;;;;;;;-0.33;85.55;90846.52;1848670;76;21187;-76
2021/01/30 03:55:16;;;;;;;16.37;9.28;;;;;;;-0.28;85.29;90829.49;1884174;76;21200;-76
2021/01/30 03:57:44;;;;;;;5.20;3.55;;;;;;;-0.21;85.09;90830.03;1854893;76;21338;-77
2021/01/30 04:00:20;;;;;;;10.13;5.72;;;;;;;-0.16;84.87;90840.88;1869288;76;21188;-77
2021/01/30 04:02:48;;;;;;;7.85;5.90;;;;;;;-0.14;84.27;90841.27;1867806;75;21429;-77
2021/01/30 04:05:21;;;;;;;6.15;4.40;;;;;;;-0.19;84.03;90845.08;1855007;74;21106;-77
2021/01/30 04:07:50;;;;;;;6.37;3.60;;;;;;;-0.22;84.06;90836.53;1884413;76;21639;-78
2021/01/30 04:10:34;;;;;;;5.78;3.80;;;;;;;-0.20;84.40;90846.81;1884622;76;21154;-76
2021/01/30 04:13:08;;;;;;;5.30;3.30;;;;;;;-0.22;84.46;90846.46;1851722;76;21147;-77
2021/01/30 04:15:39;;;;;;;6.10;3.90;;;;;;;-0.23;84.75;90850.26;1845859;77;21143;-76
2021/01/30 04:18:06;;;;;;;8.73;5.30;;;;;;;-0.21;84.73;90847.39;1819040;77;21201;-76
2021/01/30 04:20:35;;;;;;;6.12;4.20;;;;;;;-0.19;84.69;90851.00;1852963;77;21155;-77
2021/01/30 04:23:04;;;;;;;18.42;10.88;;;;;;;-0.15;84.81;90851.19;1844871;74;21682;-79
2021/01/30 04:25:31;;;;;;;6.80;4.30;;;;;;;-0.14;84.89;90855.37;1848210;77;21171;-77
2021/01/30 04:27:59;;;;;;;5.00;2.87;;;;;;;-0.10;85.12;90856.69;1848295;77;21119;-79
2021/01/30 04:30:28;;;;;;;3.47;1.90;;;;;;;-0.07;85.23;90855.91;1847745;77;21586;-80
2021/01/30 04:32:59;;;;;;;2.33;1.85;;;;;;;-0.05;85.56;90855.69;1847706;77;21198;-78
2021/01/30 04:35:32;;;;;;;2.08;1.82;;;;;;;-0.03;85.84;90848.05;1847916;77;21369;-80
2021/01/30 04:38:00;;;;;;;3.02;1.92;;;;;;;0.00;85.76;90863.89;1847512;77;21178;-80
2021/01/30 04:40:35;;;;;;;3.12;2.10;;;;;;;-0.01;85.98;90867.69;1848041;77;21163;-79
2021/01/30 04:43:21;;;;;;;2.22;2.02;;;;;;;0.00;86.23;90873.24;1844754;77;21087;-79
2021/01/30 04:46:16;;;;;;;1.85;1.55;;;;;;;0.00;86.53;90867.89;1846771;76;21149;-82
2021/01/30 04:49:13;;;;;;;2.17;1.92;;;;;;;-0.02;86.69;90860.84;1828806;78;21384;-81
2021/01/30 04:52:05;;;;;;;2.45;1.67;;;;;;;-0.03;86.80;90872.10;1840033;77;21460;-78
2021/01/30 04:55:10;;;;;;;2.77;1.65;;;;;;;-0.01;86.99;90871.70;1851967;77;21175;-78
2021/01/30 04:58:01;;;;;;;2.10;1.70;;;;;;;0.02;87.22;90878.18;1831928;76;21218;-74
2021/01/30 05:00:39;;;;;;;2.95;1.55;;;;;;;0.00;87.57;90881.26;1844685;77;21265;-74
2021/01/30 05:03:08;;;;;;;1.70;1.60;;;;;;;-0.01;87.51;90878.37;1843562;77;21199;-73
2021/01/30 05:05:35;;;;;;;2.05;1.85;;;;;;;-0.03;87.59;90880.70;1779016;80;21215;-74
2021/01/30 05:08:11;;;;;;;1.92;1.82;;;;;;;-0.04;87.61;90877.27;1860281;74;21154;-74
2021/01/30 05:10:45;;;;;;;3.25;2.67;;;;;;;-0.04;87.56;90882.61;1879088;76;21152;-73
2021/01/30 05:13:17;;;;;;;;;;;;;;;-0.02;87.62;90888.89;1864708;76;21207;-73
2021/01/30 05:15:56;;;;;;;2.50;2.30;;;;;;;0.00;87.84;90886.59;1840790;76;21984;-74
2021/01/30 05:18:35;;;;;;;2.87;2.67;;;;;;;0.04;87.82;90887.89;1842969;77;22201;-75
2021/01/30 05:21:13;;;;;;;2.25;1.92;;;;;;;0.01;87.82;90879.34;1741169;78;21674;-73
2021/01/30 05:23:44;;;;;;;2.77;2.10;;;;;;;0.04;87.80;90891.34;1777033;78;21524;-73
2021/01/30 05:26:23;;;;;;;6.33;4.25;;;;;;;0.06;87.64;90891.70;1808373;78;21124;-73
2021/01/30 05:29:14;;;;;;;5.08;3.33;;;;;;;0.05;87.60;90884.84;1829789;77;21093;-76
2021/01/30 05:32:27;;;;;;;5.28;3.42;;;;;;;0.03;87.47;90892.47;1854328;77;21099;-73
2021/01/30 05:35:06;;;;;;;10.03;4.35;;;;;;;0.06;87.38;90894.38;1855100;77;21437;-75
2021/01/30 05:37:40;;;;;;;5.50;3.22;;;;;;;0.07;87.31;90897.22;1845434;77;21366;-75
2021/01/30 05:40:41;;;;;;;8.60;4.85;;;;;;;0.07;87.05;90891.88;1831045;75;21158;-74
2021/01/30 05:43:45;;;;;;;5.97;3.17;;;;;;;0.08;87.00;90888.08;1826271;77;21147;-75
2021/01/30 05:46:27;;;;;;;5.33;3.47;;;;;;;0.08;86.80;90902.77;1865751;76;21222;-74
2021/01/30 05:48:55;;;;;;;4.37;2.83;;;;;;;0.10;86.70;90904.46;1823843;78;21183;-73
2021/01/30 05:51:37;;;;;;;3.65;2.62;;;;;;;0.10;86.71;90907.71;1853775;77;21915;-73
2021/01/30 05:54:05;;;;;;;2.40;2.10;;;;;;;0.10;86.71;90901.79;1828934;76;21189;-75
2021/01/30 05:56:43;;;;;;;3.10;2.00;;;;;;;0.13;86.64;90909.03;1861527;75;21595;-74
2021/01/30 05:59:15;;;;;;;3.42;2.47;;;;;;;0.14;86.48;90907.87;1870750;75;21162;-75
2021/01/30 06:01:43;;;;;;;3.52;2.40;;;;;;;0.17;86.42;90891.64;1846880;75;21712;-76
2021/01/30 06:04:12;;;;;;;1.50;1.40;;;;;;;0.20;86.27;90897.55;1818618;78;21196;-75
2021/01/30 06:06:54;;;;;;;2.75;2.12;;;;;;;0.23;85.75;90896.77;1823979;78;21210;-76
2021/01/30 06:09:40;;;;;;;2.00;1.62;;;;;;;0.28;85.60;90884.89;1830356;77;21236;-74
2021/01/30 06:12:30;;;;;;;2.50;1.77;;;;;;;0.32;85.51;90886.38;1833562;77;21162;-77
2021/01/30 06:15:20;;;;;;;2.58;1.80;;;;;;;0.32;85.26;90890.97;1836012;78;21162;-75
2021/01/30 06:17:48;;;;;;;3.27;1.50;;;;;;;0.34;85.29;90904.69;1815704;78;21353;-74
2021/01/30 06:20:21;;;;;;;9.28;3.35;;;;;;;0.34;85.09;90897.46;1832329;78;21162;-75
2021/01/30 06:23:10;;;;;;;2.22;1.95;;;;;;;0.36;85.00;90902.41;1841004;76;21174;-75
2021/01/30 06:25:45;;;;;;;3.10;1.82;;;;;;;0.37;84.90;90906.01;1882327;76;21171;-76
2021/01/30 06:28:24;;;;;;;1.47;1.37;;;;;;;0.39;84.92;90905.63;1830178;78;21178;-76
2021/01/30 06:30:54;;;;;;;2.15;1.72;;;;;;;0.38;84.87;90906.22;1814763;79;21661;-75
2021/01/30 06:33:33;;;;;;;2.58;1.67;;;;;;;0.40;84.77;90903.14;1873767;76;21179;-75
2021/01/30 06:36:17;;;;;;;1.87;1.40;;;;;;;0.42;84.33;90899.51;1816645;78;21177;-73
2021/01/30 06:39:09;;;;;;;1.50;1.40;;;;;;;0.42;84.28;90908.28;1851102;76;21178;-76
2021/01/30 06:41:38;;;;;;;2.58;1.82;;;;;;;0.42;84.16;90908.28;1876701;74;21171;-73
2021/01/30 06:44:22;;;;;;;1.75;1.62;;;;;;;0.42;83.91;90910.20;1833311;74;21761;-74
2021/01/30 06:47:20;;;;;;;2.27;1.32;;;;;;;0.43;83.54;90914.39;1869099;76;21135;-74
2021/01/30 06:49:54;;;;;;;1.72;1.37;;;;;;;0.46;83.83;90922.97;1751023;77;21162;-75
2021/01/30 06:52:28;;;;;;;2.83;2.20;;;;;;;0.45;83.57;90909.39;1853458;77;21091;-75
2021/01/30 06:55:11;;;;;;;2.12;1.70;;;;;;;0.45;83.80;90918.20;1831266;77;21155;-76
2021/01/30 06:57:51;;;;;;;1.92;1.60;;;;;;;0.44;83.23;90903.87;1878543;75;21131;-74
2021/01/30 07:00:27;;;;;;;3.22;2.50;;;;;;;0.46;83.50;90915.70;1845550;76;21183;-75
2021/01/30 07:03:10;;;;;;;2.27;1.50;;;;;;;0.47;83.52;90918.55;1860247;76;21218;-75
2021/01/30 07:06:11;;;;;;;3.70;1.82;;;;;;;0.47;83.08;90927.16;1805174;76;21159;-75
2021/01/30 07:09:08;;;;;;;1.32;1.22;;;;;;;0.48;83.35;90909.38;1823578;77;21665;-74
2021/01/30 07:11:56;;;;;;;3.70;2.10;;;;;;;0.49;82.78;90907.48;1832614;78;22292;-74
2021/01/30 07:15:03;;;;;;;2.17;1.70;;;;;;;0.46;82.64;90902.33;1840589;76;21111;-73
2021/01/30 07:17:46;;;;;;;;;;;;;;;0.45;82.54;90899.48;1819627;78;22024;-74
2021/01/30 07:20:59;;;;;;;2.10;1.12;;;;;;;0.48;81.66;90901.34;1826666;78;20256;-75
2021/01/30 07:23:43;;;;;;;1.45;1.35;;;;;;;0.51;81.63;90904.41;1819850;78;21199;-73
2021/01/30 07:26:20;;;;;;;1.45;1.22;;;;;;;0.48;80.99;90898.67;1833564;75;22386;-72
2021/01/30 07:29:19;;;;;;;1.50;1.40;;;;;;;0.50;80.48;90894.28;1892651;75;21660;-74
2021/01/30 07:31:48;;;;;;;1.85;1.50;;;;;;;0.51;80.15;90899.81;1857152;77;21139;-73
2021/01/30 07:34:29;;;;;;;2.15;1.95;;;;;;;0.51;79.92;90906.50;1779191;79;21140;-74
2021/01/30 07:37:17;;;;;;;1.35;1.05;;;;;;;0.54;79.63;90900.37;1794296;78;21701;-73
2021/01/30 07:39:52;;;;;;;1.37;1.02;;;;;;;0.55;78.98;90905.89;1853141;76;21238;-74
2021/01/30 07:42:46;;;;;;;2.12;1.75;;;;;;;0.55;79.10;90915.25;1797974;79;21196;-75
2021/01/30 07:45:27;;;;;;;4.62;4.05;;;;;;;0.58;79.00;90923.08;1850557;76;21144;-73
2021/01/30 07:48:23;;;;;;;1.75;1.52;;;;;;;0.59;78.63;90921.33;1834899;76;21165;-73
2021/01/30 07:51:07;;;;;;;4.20;3.17;;;;;;;0.63;78.27;90930.09;1786435;79;21186;-72
2021/01/30 07:53:40;;;;;;;3.10;2.52;;;;;;;0.68;77.81;90924.34;1817724;77;21611;-73
2021/01/30 07:56:22;;;;;;;3.52;2.45;;;;;;;0.73;78.32;90930.59;1871454;76;21180;-72
2021/01/30 07:58:57;;;;;;;2.02;1.82;;;;;;;0.76;78.13;90930.97;1838856;78;21151;-73
2021/01/30 08:01:53;;;;;;;1.10;1.00;;;;;;;0.78;77.56;90934.00;1809593;79;21653;-73
2021/01/30 08:04:49;;;;;;;1.77;1.22;;;;;;;0.83;77.63;90942.93;1873937;76;21179;-71
2021/01/30 08:07:54;;;;;;;;;;;;;;;0.88;77.98;90936.59;1809071;76;22708;-72
2021/01/30 08:10:49;;;;;;;3.08;2.22;;;;;;;0.99;77.59;90946.46;1871168;76;20310;-73
2021/01/30 08:13:43;;;;;;;2.10;1.30;;;;;;;1.06;77.67;90943.14;1808241;76;21197;-74
2021/01/30 08:16:34;;;;;;;1.65;1.35;;;;;;;1.16;76.79;90947.63;1862887;76;21449;-73
2021/01/30 08:19:09;;;;;;;1.20;1.10;;;;;;;1.25;76.05;90948.52;1801098;76;21709;-74
2021/01/30 08:21:45;;;;;;;;;;;;;;;1.33;75.68;90960.69;1853888;76;21315;-74
2021/01/30 08:24:51;;;;;;;1.17;1.07;;;;;;;1.38;76.15;90954.89;1858601;76;20313;-75
2021/01/30 08:27:24;;;;;;;1.80;1.42;;;;;;;1.40;75.34;90967.89;1696031;81;21206;-74
2021/01/30 08:30:02;;;;;;;1.90;1.10;;;;;;;1.41;75.42;90956.02;1735115;82;21172;-74
2021/01/30 08:32:33;;;;;;;2.85;1.42;;;;;;;1.42;75.53;90960.21;1775515;79;21286;-73
2021/01/30 08:35:22;;;;;;;3.27;1.98;;;;;;;1.44;76.10;90990.80;1735903;80;22618;-73
2021/01/30 08:38:30;;;;;;;2.72;1.42;;;;;;;1.50;76.17;90991.13;1752521;81;21196;-73
2021/01/30 08:41:01;;;;;;;1.40;1.30;;;;;;;1.66;75.89;90992.70;1587681;90;21261;-74
2021/01/30 08:43:51;;;;;;;1.47;1.20;;;;;;;1.69;75.15;90995.94;1843429;77;21100;-74
2021/01/30 08:46:30;;;;;;;1.90;1.70;;;;;;;1.58;75.17;91002.53;1827828;77;21108;-75
2021/01/30 08:49:16;;;;;;;1.95;1.60;;;;;;;1.54;75.73;91002.56;1823696;78;22117;-73
2021/01/30 08:51:45;;;;;;;2.02;1.60;;;;;;;1.56;76.03;91010.22;1845829;77;21094;-74
2021/01/30 08:54:39;;;;;;;2.27;2.08;;;;;;;1.60;75.61;91024.33;1808744;79;21193;-73
2021/01/30 08:57:35;;;;;;;2.58;2.05;;;;;;;1.54;75.08;91020.55;1817801;77;21191;-72
2021/01/30 09:00:10;;;;;;;2.77;2.27;;;;;;;1.47;75.38;91034.79;1774521;79;21158;-73
2021/01/30 09:02:41;;;;;;;;;;;;;;;1.41;75.80;91039.03;1813939;78;21683;-73
2021/01/30 09:05:21;;;;;;;3.20;2.22;;;;;;;1.36;75.84;91035.45;1811800;79;20979;-73
2021/01/30 09:07:54;;;;;;;2.15;1.92;;;;;;;1.35;76.07;91041.94;1781412;79;21167;-73
2021/01/30 09:10:35;;;;;;;2.65;2.10;;;;;;;1.33;76.21;91030.88;1776244;79;21175;-73
2021/01/30 09:13:14;;;;;;;3.10;2.42;;;;;;;1.30;76.60;91044.47;1772637;80;21657;-73
2021/01/30 09:15:48;;;;;;;2.92;1.98;;;;;;;1.29;76.42;91044.30;1808417;77;21696;-73
2021/01/30 09:18:42;;;;;;;1.90;1.72;;;;;;;1.27;76.22;91041.82;1813996;78;21165;-73
2021/01/30 09:21:45;;;;;;;2.55;1.90;;;;;;;1.25;76.05;91057.53;1809453;78;21879;-73
2021/01/30 09:24:40;;;;;;;6.50;4.47;;;;;;;1.22;75.75;91033.64;1758084;79;21208;-76
2021/01/30 09:27:17;;;;;;;3.87;3.17;;;;;;;1.20;75.97;91042.63;1736167;79;21164;-74
2021/01/30 09:29:47;;;;;;;2.95;2.67;;;;;;;1.20;76.38;91043.97;1771204;79;21195;-73
2021/01/30 09:32:17;;;;;;;2.95;2.42;;;;;;;1.24;76.33;91034.57;1823414;77;21119;-72
2021/01/30 09:34:51;;;;;;;3.45;3.08;;;;;;;1.34;76.83;91037.17;1783933;77;21559;-74
2021/01/30 09:37:41;;;;;;;2.22;1.77;;;;;;;1.46;75.46;91031.91;1803232;79;21135;-72
2021/01/30 09:40:29;;;;;;;6.25;2.58;;;;;;;1.52;75.23;91020.96;1788440;77;21155;-75
2021/01/30 09:43:07;;;;;;;2.52;2.17;;;;;;;1.55;74.89;91022.85;1796376;79;21207;-72
2021/01/30 09:45:37;;;;;;;3.15;1.80;;;;;;;1.55;74.87;91020.75;1785207;77;21155;-72
2021/01/30 09:48:11;;;;;;;2.92;2.60;;;;;;;1.57;74.50;91008.47;1758197;79;20996;-74
2021/01/30 09:50:45;;;;;;;2.30;1.85;;;;;;;1.59;74.24;91002.15;1809624;77;22161;-75
2021/01/30 09:53:14;;;;;;;1.47;1.35;;;;;;;1.54;74.03;91005.82;1818606;78;21194;-74
2021/01/30 09:55:41;;;;;;;2.72;2.05;;;;;;;1.54;74.47;90997.78;1812676;77;21209;-73
2021/01/30 09:58:11;;;;;;;4.65;2.85;;;;;;;1.63;74.58;91003.45;1759666;78;21210;-72
2021/01/30 10:00:45;;;;;;;2.22;1.98;;;;;;;1.76;74.15;91004.45;1707488;82;21101;-76
2021/01/30 10:03:23;;;;;;;3.27;1.70;;;;;;;1.88;73.39;91001.29;1734151;82;21199;-75
2021/01/30 10:05:53;;;;;;;2.77;2.15;;;;;;;2.03;72.28;91007.26;1718813;81;21179;-73
2021/01/30 10:08:30;;;;;;;3.87;2.52;;;;;;;2.18;72.43;91019.89;1771614;81;21430;-72
2021/01/30 10:11:18;;;;;;;2.50;2.00;;;;;;;2.27;72.21;91018.09;1754526;80;21155;-73
2021/01/30 10:13:52;;;;;;;2.75;2.30;;;;;;;2.36;71.51;91015.09;1779079;80;21180;-72
2021/01/30 10:16:23;;;;;;;2.10;1.90;;;;;;;2.42;71.82;91018.10;1764226;80;21646;-73
2021/01/30 10:19:11;;;;;;;2.02;1.82;;;;;;;2.44;71.12;91007.72;1755708;80;21158;-74
2021/01/30 10:21:40;;;;;;;2.33;1.85;;;;;;;2.45;71.09;91017.30;1749319;81;21373;-73
2021/01/30 10:24:29;;;;;;;2.35;2.12;;;;;;;2.49;71.28;91015.33;1744628;80;21424;-73
2021/01/30 10:27:22;;;;;;;2.80;1.80;;;;;;;2.51;70.92;91004.95;1751265;81;21189;-73
2021/01/30 10:29:51;;;;;;;1.42;1.32;;;;;;;2.56;71.15;90999.73;1711706;83;21199;-73
2021/01/30 10:32:23;;;;;;;2.22;1.80;;;;;;;2.58;69.36;90991.44;1813158;78;21163;-74
2021/01/30 10:34:56;;;;;;;2.75;1.87;;;;;;;2.34;69.31;91004.60;1803521;77;21280;-74
2021/01/30 10:37:41;;;;;;;1.70;1.52;;;;;;;2.11;70.44;90995.29;1816681;78;21194;-73
2021/01/30 10:40:15;;;;;;;1.65;1.55;;;;;;;1.94;71.02;90996.23;1785982;77;21151;-73
2021/01/30 10:42:43;;;;;;;2.62;1.98;;;;;;;1.78;71.05;90994.70;1768856;79;21720;-73
2021/01/30 10:45:18;;;;;;;1.55;1.45;;;;;;;1.69;71.35;90981.20;1811151;79;21204;-73
2021/01/30 10:47:56;;;;;;;2.80;2.20;;;;;;;1.63;71.52;90978.77;1808375;77;22351;-74
2021/01/30 10:50:41;;;;;;;2.52;2.33;;;;;;;1.59;71.52;90972.68;1757163;79;21140;-73
2021/01/30 10:53:39;;;;;;;2.87;2.17;;;;;;;1.59;71.75;90975.94;1790735;78;21085;-73
2021/01/30 10:56:28;;;;;;;2.72;2.52;;;;;;;1.58;71.25;90967.15;1835620;76;21101;-73
2021/01/30 10:58:56;;;;;;;2.47;1.95;;;;;;;1.62;71.67;90959.08;1820740;78;21082;-74
2021/01/30 11:01:34;;;;;;;1.87;1.50;;;;;;;1.65;71.17;90977.77;1786329;79;22532;-73
2021/01/30 11:04:04;;;;;;;2.25;2.02;;;;;;;1.67;70.55;90963.41;1779536;79;21170;-73
2021/01/30 11:06:44;;;;;;;2.40;1.47;;;;;;;1.66;70.40;90976.63;1818050;77;21183;-75
2021/01/30 11:09:33;;;;;;;2.50;2.30;;;;;;;1.65;70.74;90981.78;1794425;78;21418;-73
2021/01/30 11:12:04;;;;;;;3.52;2.08;;;;;;;1.65;71.15;90994.42;1812812;79;21114;-74
2021/01/30 11:14:32;;;;;;;4.17;2.72;;;;;;;1.66;71.60;90986.59;1812353;79;21433;-73
2021/01/30 11:17:01;;;;;;;3.55;1.85;;;;;;;1.65;71.52;90988.48;1787191;78;21219;-73
2021/01/30 11:19:37;;;;;;;2.67;2.15;;;;;;;1.66;71.27;90998.64;1836372;77;21171;-74
2021/01/30 11:22:18;;;;;;;2.12;1.95;;;;;;;1.62;71.40;91002.70;1809295;79;21122;-72
2021/01/30 11:24:55;;;;;;;2.15;1.60;;;;;;;1.59;71.63;91002.15;1809889;79;21107;-73
2021/01/30 11:27:36;;;;;;;3.35;1.90;;;;;;;1.55;72.08;91010.04;1791134;78;21622;-74
2021/01/30 11:30:10;;;;;;;2.15;1.60;;;;;;;1.50;72.23;91001.83;1789771;79;21151;-74
2021/01/30 11:32:39;;;;;;;1.42;1.32;;;;;;;1.49;72.54;90999.56;1807419;79;21696;-74
2021/01/30 11:35:09;;;;;;;1.72;1.40;;;;;;;1.49;72.44;90989.61;1767868;79;21751;-73
2021/01/30 11:37:36;;;;;;;1.12;1.02;;;;;;;1.50;72.75;91002.41;1783575;80;21250;-73
2021/01/30 11:40:09;;;;;;;2.17;1.40;;;;;;;1.48;71.64;90998.05;1784856;79;22529;-73
2021/01/30 11:42:36;;;;;;;2.02;1.55;;;;;;;1.47;71.82;90995.95;1785406;79;21286;-73
2021/01/30 11:45:06;;;;;;;2.42;1.67;;;;;;;1.48;72.51;90996.12;1784800;79;21177;-73
2021/01/30 11:47:34;;;;;;;2.70;1.95;;;;;;;1.45;72.40;90986.20;1784760;79;21107;-73
2021/01/30 11:50:03;;;;;;;2.25;1.70;;;;;;;1.44;72.73;90986.03;1784550;79;21180;-74
2021/01/30 11:52:31;;;;;;;2.02;1.87;;;;;;;1.43;72.60;90972.47;1782318;79;21370;-73
2021/01/30 11:54:58;;;;;;;2.35;1.92;;;;;;;1.44;73.10;90961.34;1779664;79;21637;-72
2021/01/30 11:57:26;;;;;;;2.22;1.90;;;;;;;1.47;73.59;90971.85;1783741;77;21120;-72
2021/01/30 11:59:54;;;;;;;2.55;2.20;;;;;;;1.46;73.54;90967.05;1851014;76;21209;-74
2021/01/30 12:02:35;;;;;;;2.80;2.20;;;;;;;1.44;73.31;90985.45;1790807;76;21148;-72
2021/01/30 12:05:07;;;;;;;1.82;1.72;;;;;;;1.46;73.20;90973.74;1828978;77;21792;-73
2021/01/30 12:07:34;;;;;;;2.87;2.17;;;;;;;1.51;72.93;90960.52;1789200;78;21747;-72
2021/01/30 12:10:04;;;;;;;3.15;2.55;;;;;;;1.51;73.26;90966.46;1818868;78;21213;-72
2021/01/30 12:12:32;;;;;;;2.37;2.00;;;;;;;1.51;73.55;90967.80;1788848;78;21179;-73
2021/01/30 12:14:59;;;;;;;3.05;2.27;;;;;;;1.43;73.18;91006.70;1772882;80;21187;-76
2021/01/30 12:17:42;;;;;;;2.22;1.98;;;;;;;1.39;73.21;90966.36;1765976;80;21382;-75
2021/01/30 12:20:24;;;;;;;3.37;2.80;;;;;;;1.37;73.68;90982.08;1806618;79;21206;-73
2021/01/30 12:22:53;;;;;;;1.95;1.75;;;;;;;1.37;74.15;90956.64;1769639;79;22154;-72